sensor_id;sensor_type;location;lat;lon;timestamp;P1;durP1;ratioP1;P2;durP2;ratioP2
8500;SDS011;4288;48.484;10.024;2023-12-20T00:00:35;6.20;;;2.93;;
8500;SDS011;4288;48.484;10.024;2023-12-20T00:03:03;6.90;;;3.37;;
8500;SDS011;4288;48.484;10.024;2023-12-20T00:05:31;6.63;;;3.13;;
8500;SDS011;4288;48.484;10.024;2023-12-20T00:07:58;4.77;;;3.13;;
8500;SDS011;4288;48.484;10.024;2023-12-20T00:10:26;4.37;;;2.80;;
8500;SDS011;4288;48.484;10.024;2023-12-20T00:12:53;4.13;;;3.03;;
8500;SDS011;4288;48.484;10.024;2023-12-20T00:15:20;4.33;;;2.97;;
8500;SDS011;4288;48.484;10.024;2023-12-20T00:17:49;5.80;;;2.90;;
8500;SDS011;4288;48.484;10.024;2023-12-20T00:20:16;5.17;;;2.77;;
8500;SDS011;4288;48.484;10.024;2023-12-20T00:22:44;4.80;;;2.50;;
8500;SDS011;4288;48.484;10.024;2023-12-20T00:25:11;5.50;;;3.03;;
8500;SDS011;4288;48.484;10.024;2023-12-20T00:27:39;3.87;;;2.10;;
8500;SDS011;4288;48.484;10.024;2023-12-20T00:30:07;3.63;;;2.80;;
8500;SDS011;4288;48.484;10.024;2023-12-20T00:32:35;4.67;;;2.60;;
8500;SDS011;4288;48.484;10.024;2023-12-20T00:35:04;3.90;;;2.00;;
8500;SDS011;4288;48.484;10.024;2023-12-20T00:37:32;4.13;;;2.40;;
8500;SDS011;4288;48.484;10.024;2023-12-20T00:39:59;5.93;;;2.63;;
8500;SDS011;4288;48.484;10.024;2023-12-20T00:42:26;4.30;;;2.37;;
8500;SDS011;4288;48.484;10.024;2023-12-20T00:44:54;4.43;;;3.03;;
8500;SDS011;4288;48.484;10.024;2023-12-20T00:47:21;4.20;;;2.87;;
8500;SDS011;4288;48.484;10.024;2023-12-20T00:49:49;4.47;;;2.93;;
8500;SDS011;4288;48.484;10.024;2023-12-20T00:52:17;2.90;;;2.53;;
8500;SDS011;4288;48.484;10.024;2023-12-20T00:54:47;2.90;;;2.20;;
8500;SDS011;4288;48.484;10.024;2023-12-20T00:57:14;4.90;;;3.20;;
8500;SDS011;4288;48.484;10.024;2023-12-20T00:59:41;5.03;;;3.43;;
8500;SDS011;4288;48.484;10.024;2023-12-20T01:02:09;9.13;;;2.23;;
8500;SDS011;4288;48.484;10.024;2023-12-20T01:04:36;3.37;;;2.30;;
8500;SDS011;4288;48.484;10.024;2023-12-20T01:07:04;5.27;;;2.60;;
8500;SDS011;4288;48.484;10.024;2023-12-20T01:09:32;3.30;;;2.10;;
8500;SDS011;4288;48.484;10.024;2023-12-20T01:12:00;3.27;;;2.50;;
8500;SDS011;4288;48.484;10.024;2023-12-20T01:14:27;4.80;;;2.17;;
8500;SDS011;4288;48.484;10.024;2023-12-20T01:16:54;4.83;;;2.43;;
8500;SDS011;4288;48.484;10.024;2023-12-20T01:19:22;3.50;;;2.37;;
8500;SDS011;4288;48.484;10.024;2023-12-20T01:21:50;5.80;;;2.00;;
8500;SDS011;4288;48.484;10.024;2023-12-20T01:24:17;2.73;;;1.87;;
8500;SDS011;4288;48.484;10.024;2023-12-20T01:26:46;2.70;;;2.37;;
8500;SDS011;4288;48.484;10.024;2023-12-20T01:29:14;3.87;;;2.63;;
8500;SDS011;4288;48.484;10.024;2023-12-20T01:31:41;1.83;;;1.60;;
8500;SDS011;4288;48.484;10.024;2023-12-20T01:34:08;3.67;;;1.73;;
8500;SDS011;4288;48.484;10.024;2023-12-20T01:36:36;4.10;;;2.20;;
8500;SDS011;4288;48.484;10.024;2023-12-20T01:39:03;2.20;;;1.83;;
8500;SDS011;4288;48.484;10.024;2023-12-20T01:41:30;3.83;;;2.43;;
8500;SDS011;4288;48.484;10.024;2023-12-20T01:43:59;2.43;;;1.93;;
8500;SDS011;4288;48.484;10.024;2023-12-20T01:46:26;3.60;;;1.90;;
8500;SDS011;4288;48.484;10.024;2023-12-20T01:48:54;3.07;;;2.03;;
8500;SDS011;4288;48.484;10.024;2023-12-20T01:51:21;3.03;;;1.50;;
8500;SDS011;4288;48.484;10.024;2023-12-20T01:53:49;4.50;;;2.23;;
8500;SDS011;4288;48.484;10.024;2023-12-20T01:56:17;4.63;;;2.20;;
8500;SDS011;4288;48.484;10.024;2023-12-20T01:58:45;2.50;;;1.63;;
8500;SDS011;4288;48.484;10.024;2023-12-20T02:01:15;1.63;;;1.47;;
8500;SDS011;4288;48.484;10.024;2023-12-20T02:03:43;2.10;;;1.33;;
8500;SDS011;4288;48.484;10.024;2023-12-20T02:06:11;2.57;;;2.03;;
8500;SDS011;4288;48.484;10.024;2023-12-20T02:08:39;3.97;;;1.70;;
8500;SDS011;4288;48.484;10.024;2023-12-20T02:11:06;2.43;;;1.50;;
8500;SDS011;4288;48.484;10.024;2023-12-20T02:13:34;2.17;;;1.60;;
8500;SDS011;4288;48.484;10.024;2023-12-20T02:16:02;2.67;;;2.00;;
8500;SDS011;4288;48.484;10.024;2023-12-20T02:18:31;2.50;;;2.00;;
8500;SDS011;4288;48.484;10.024;2023-12-20T02:20:59;2.67;;;1.77;;
8500;SDS011;4288;48.484;10.024;2023-12-20T02:23:28;3.27;;;1.80;;
8500;SDS011;4288;48.484;10.024;2023-12-20T02:25:55;4.10;;;1.60;;
8500;SDS011;4288;48.484;10.024;2023-12-20T02:28:22;4.50;;;2.10;;
8500;SDS011;4288;48.484;10.024;2023-12-20T02:30:50;1.60;;;1.20;;
8500;SDS011;4288;48.484;10.024;2023-12-20T02:33:17;3.27;;;1.83;;
8500;SDS011;4288;48.484;10.024;2023-12-20T02:35:45;5.20;;;2.13;;
8500;SDS011;4288;48.484;10.024;2023-12-20T02:38:12;2.27;;;1.70;;
8500;SDS011;4288;48.484;10.024;2023-12-20T02:40:41;2.53;;;1.63;;
8500;SDS011;4288;48.484;10.024;2023-12-20T02:43:09;3.43;;;1.80;;
8500;SDS011;4288;48.484;10.024;2023-12-20T02:45:36;2.63;;;1.70;;
8500;SDS011;4288;48.484;10.024;2023-12-20T02:48:04;3.10;;;2.37;;
8500;SDS011;4288;48.484;10.024;2023-12-20T02:50:31;2.60;;;1.90;;
8500;SDS011;4288;48.484;10.024;2023-12-20T02:52:59;6.20;;;1.60;;
8500;SDS011;4288;48.484;10.024;2023-12-20T02:55:26;2.57;;;1.70;;
8500;SDS011;4288;48.484;10.024;2023-12-20T02:57:55;5.97;;;1.70;;
8500;SDS011;4288;48.484;10.024;2023-12-20T03:00:22;4.57;;;2.20;;
8500;SDS011;4288;48.484;10.024;2023-12-20T03:02:49;2.17;;;1.97;;
8500;SDS011;4288;48.484;10.024;2023-12-20T03:05:17;4.97;;;1.80;;
8500;SDS011;4288;48.484;10.024;2023-12-20T03:07:45;2.73;;;1.87;;
8500;SDS011;4288;48.484;10.024;2023-12-20T03:10:13;2.53;;;1.80;;
8500;SDS011;4288;48.484;10.024;2023-12-20T03:12:40;2.77;;;2.00;;
8500;SDS011;4288;48.484;10.024;2023-12-20T03:15:09;2.90;;;1.60;;
8500;SDS011;4288;48.484;10.024;2023-12-20T03:17:37;1.83;;;1.73;;
8500;SDS011;4288;48.484;10.024;2023-12-20T03:20:05;3.63;;;1.97;;
8500;SDS011;4288;48.484;10.024;2023-12-20T03:22:33;2.50;;;1.67;;
8500;SDS011;4288;48.484;10.024;2023-12-20T03:25:01;3.40;;;2.10;;
8500;SDS011;4288;48.484;10.024;2023-12-20T03:27:28;2.63;;;1.80;;
8500;SDS011;4288;48.484;10.024;2023-12-20T03:29:56;4.60;;;2.27;;
8500;SDS011;4288;48.484;10.024;2023-12-20T03:32:24;2.10;;;1.90;;
8500;SDS011;4288;48.484;10.024;2023-12-20T03:34:52;3.10;;;2.00;;
8500;SDS011;4288;48.484;10.024;2023-12-20T03:37:19;5.73;;;2.27;;
8500;SDS011;4288;48.484;10.024;2023-12-20T03:39:47;3.07;;;1.87;;
8500;SDS011;4288;48.484;10.024;2023-12-20T03:42:14;4.73;;;2.50;;
8500;SDS011;4288;48.484;10.024;2023-12-20T03:44:42;1.77;;;1.33;;
8500;SDS011;4288;48.484;10.024;2023-12-20T03:47:09;2.50;;;1.90;;
8500;SDS011;4288;48.484;10.024;2023-12-20T03:49:38;2.27;;;1.90;;
8500;SDS011;4288;48.484;10.024;2023-12-20T03:52:05;1.73;;;1.63;;
8500;SDS011;4288;48.484;10.024;2023-12-20T03:54:33;4.20;;;2.00;;
8500;SDS011;4288;48.484;10.024;2023-12-20T03:57:01;5.03;;;2.27;;
8500;SDS011;4288;48.484;10.024;2023-12-20T03:59:29;2.87;;;2.07;;
8500;SDS011;4288;48.484;10.024;2023-12-20T04:02:00;7.60;;;2.20;;
8500;SDS011;4288;48.484;10.024;2023-12-20T04:04:28;1.97;;;1.73;;
8500;SDS011;4288;48.484;10.024;2023-12-20T04:06:56;4.03;;;1.83;;
8500;SDS011;4288;48.484;10.024;2023-12-20T04:09:24;1.80;;;1.57;;
8500;SDS011;4288;48.484;10.024;2023-12-20T04:11:51;3.10;;;1.83;;
8500;SDS011;4288;48.484;10.024;2023-12-20T04:14:19;2.50;;;1.80;;
8500;SDS011;4288;48.484;10.024;2023-12-20T04:16:46;2.27;;;1.40;;
8500;SDS011;4288;48.484;10.024;2023-12-20T04:19:13;2.60;;;1.80;;
8500;SDS011;4288;48.484;10.024;2023-12-20T04:21:41;3.23;;;2.03;;
8500;SDS011;4288;48.484;10.024;2023-12-20T04:24:09;3.37;;;2.00;;
8500;SDS011;4288;48.484;10.024;2023-12-20T04:26:37;2.17;;;1.50;;
8500;SDS011;4288;48.484;10.024;2023-12-20T04:29:04;3.47;;;2.30;;
8500;SDS011;4288;48.484;10.024;2023-12-20T04:31:31;4.13;;;2.27;;
8500;SDS011;4288;48.484;10.024;2023-12-20T04:33:59;2.53;;;1.83;;
8500;SDS011;4288;48.484;10.024;2023-12-20T04:36:26;1.97;;;1.80;;
8500;SDS011;4288;48.484;10.024;2023-12-20T04:38:55;1.73;;;1.40;;
8500;SDS011;4288;48.484;10.024;2023-12-20T04:41:23;4.60;;;1.83;;
8500;SDS011;4288;48.484;10.024;2023-12-20T04:43:52;1.57;;;1.23;;
8500;SDS011;4288;48.484;10.024;2023-12-20T04:46:20;2.83;;;1.63;;
8500;SDS011;4288;48.484;10.024;2023-12-20T04:48:47;1.23;;;1.13;;
8500;SDS011;4288;48.484;10.024;2023-12-20T04:51:14;2.30;;;1.80;;
8500;SDS011;4288;48.484;10.024;2023-12-20T04:53:42;1.90;;;1.63;;
8500;SDS011;4288;48.484;10.024;2023-12-20T04:56:09;2.43;;;1.60;;
8500;SDS011;4288;48.484;10.024;2023-12-20T04:58:38;1.70;;;1.23;;
8500;SDS011;4288;48.484;10.024;2023-12-20T05:01:05;1.20;;;1.00;;
8500;SDS011;4288;48.484;10.024;2023-12-20T05:03:34;0.80;;;0.80;;
8500;SDS011;4288;48.484;10.024;2023-12-20T05:06:02;1.60;;;0.70;;
8500;SDS011;4288;48.484;10.024;2023-12-20T05:08:30;0.60;;;0.50;;
8500;SDS011;4288;48.484;10.024;2023-12-20T05:10:57;0.47;;;0.47;;
8500;SDS011;4288;48.484;10.024;2023-12-20T05:13:24;0.70;;;0.60;;
8500;SDS011;4288;48.484;10.024;2023-12-20T05:15:53;1.80;;;0.70;;
8500;SDS011;4288;48.484;10.024;2023-12-20T05:18:20;1.77;;;0.87;;
8500;SDS011;4288;48.484;10.024;2023-12-20T05:20:48;3.40;;;0.87;;
8500;SDS011;4288;48.484;10.024;2023-12-20T05:23:16;1.57;;;1.00;;
8500;SDS011;4288;48.484;10.024;2023-12-20T05:25:45;0.40;;;0.40;;
8500;SDS011;4288;48.484;10.024;2023-12-20T05:28:12;1.10;;;0.50;;
8500;SDS011;4288;48.484;10.024;2023-12-20T05:30:40;0.40;;;0.40;;
8500;SDS011;4288;48.484;10.024;2023-12-20T05:33:08;1.43;;;0.50;;
8500;SDS011;4288;48.484;10.024;2023-12-20T05:35:36;0.67;;;0.50;;
8500;SDS011;4288;48.484;10.024;2023-12-20T05:38:03;0.50;;;0.50;;
8500;SDS011;4288;48.484;10.024;2023-12-20T05:40:31;0.40;;;0.40;;
8500;SDS011;4288;48.484;10.024;2023-12-20T05:42:58;0.40;;;0.40;;
8500;SDS011;4288;48.484;10.024;2023-12-20T05:45:25;1.33;;;0.40;;
8500;SDS011;4288;48.484;10.024;2023-12-20T05:47:53;0.40;;;0.40;;
8500;SDS011;4288;48.484;10.024;2023-12-20T05:50:21;1.57;;;0.50;;
8500;SDS011;4288;48.484;10.024;2023-12-20T05:52:49;0.40;;;0.40;;
8500;SDS011;4288;48.484;10.024;2023-12-20T05:55:16;3.80;;;0.40;;
8500;SDS011;4288;48.484;10.024;2023-12-20T05:57:44;0.40;;;0.40;;
8500;SDS011;4288;48.484;10.024;2023-12-20T06:00:12;0.40;;;0.40;;
8500;SDS011;4288;48.484;10.024;2023-12-20T06:02:40;0.60;;;0.50;;
8500;SDS011;4288;48.484;10.024;2023-12-20T06:05:07;1.00;;;0.47;;
8500;SDS011;4288;48.484;10.024;2023-12-20T06:07:36;0.40;;;0.40;;
8500;SDS011;4288;48.484;10.024;2023-12-20T06:10:04;0.60;;;0.40;;
8500;SDS011;4288;48.484;10.024;2023-12-20T06:12:32;0.40;;;0.40;;
8500;SDS011;4288;48.484;10.024;2023-12-20T06:15:01;1.23;;;0.40;;
8500;SDS011;4288;48.484;10.024;2023-12-20T06:17:28;0.40;;;0.40;;
8500;SDS011;4288;48.484;10.024;2023-12-20T06:19:56;0.40;;;0.40;;
8500;SDS011;4288;48.484;10.024;2023-12-20T06:22:24;0.90;;;0.47;;
8500;SDS011;4288;48.484;10.024;2023-12-20T06:24:52;0.73;;;0.43;;
8500;SDS011;4288;48.484;10.024;2023-12-20T06:27:20;1.20;;;0.40;;
8500;SDS011;4288;48.484;10.024;2023-12-20T06:29:47;0.50;;;0.40;;
8500;SDS011;4288;48.484;10.024;2023-12-20T06:32:14;0.40;;;0.40;;
8500;SDS011;4288;48.484;10.024;2023-12-20T06:34:42;0.60;;;0.40;;
8500;SDS011;4288;48.484;10.024;2023-12-20T06:37:09;0.40;;;0.40;;
8500;SDS011;4288;48.484;10.024;2023-12-20T06:39:36;0.40;;;0.40;;
8500;SDS011;4288;48.484;10.024;2023-12-20T06:42:05;0.50;;;0.40;;
8500;SDS011;4288;48.484;10.024;2023-12-20T06:44:33;0.40;;;0.40;;
8500;SDS011;4288;48.484;10.024;2023-12-20T06:47:00;0.50;;;0.40;;
8500;SDS011;4288;48.484;10.024;2023-12-20T06:49:27;0.40;;;0.40;;
8500;SDS011;4288;48.484;10.024;2023-12-20T06:51:55;0.50;;;0.40;;
8500;SDS011;4288;48.484;10.024;2023-12-20T06:54:22;0.50;;;0.50;;
8500;SDS011;4288;48.484;10.024;2023-12-20T06:56:49;0.40;;;0.40;;
8500;SDS011;4288;48.484;10.024;2023-12-20T06:59:18;0.40;;;0.40;;
8500;SDS011;4288;48.484;10.024;2023-12-20T07:01:47;6.80;;;0.43;;
8500;SDS011;4288;48.484;10.024;2023-12-20T07:04:15;0.40;;;0.40;;
8500;SDS011;4288;48.484;10.024;2023-12-20T07:06:45;0.40;;;0.40;;
8500;SDS011;4288;48.484;10.024;2023-12-20T07:09:13;0.40;;;0.40;;
8500;SDS011;4288;48.484;10.024;2023-12-20T07:11:40;0.40;;;0.40;;
8500;SDS011;4288;48.484;10.024;2023-12-20T07:14:07;0.30;;;0.30;;
8500;SDS011;4288;48.484;10.024;2023-12-20T07:16:36;0.50;;;0.50;;
8500;SDS011;4288;48.484;10.024;2023-12-20T07:19:03;0.50;;;0.40;;
8500;SDS011;4288;48.484;10.024;2023-12-20T07:21:31;1.07;;;0.40;;
8500;SDS011;4288;48.484;10.024;2023-12-20T07:23:59;0.50;;;0.40;;
8500;SDS011;4288;48.484;10.024;2023-12-20T07:26:26;0.40;;;0.40;;
8500;SDS011;4288;48.484;10.024;2023-12-20T07:28:53;0.50;;;0.50;;
8500;SDS011;4288;48.484;10.024;2023-12-20T07:31:21;0.40;;;0.40;;
8500;SDS011;4288;48.484;10.024;2023-12-20T07:33:50;0.50;;;0.50;;
8500;SDS011;4288;48.484;10.024;2023-12-20T07:36:18;0.50;;;0.47;;
8500;SDS011;4288;48.484;10.024;2023-12-20T07:38:46;0.40;;;0.40;;
8500;SDS011;4288;48.484;10.024;2023-12-20T07:41:13;1.73;;;0.50;;
8500;SDS011;4288;48.484;10.024;2023-12-20T07:43:42;0.43;;;0.40;;
8500;SDS011;4288;48.484;10.024;2023-12-20T07:46:09;0.50;;;0.50;;
8500;SDS011;4288;48.484;10.024;2023-12-20T07:48:37;0.40;;;0.40;;
8500;SDS011;4288;48.484;10.024;2023-12-20T07:51:05;0.40;;;0.40;;
8500;SDS011;4288;48.484;10.024;2023-12-20T07:53:34;0.30;;;0.30;;
8500;SDS011;4288;48.484;10.024;2023-12-20T07:56:02;1.60;;;0.40;;
8500;SDS011;4288;48.484;10.024;2023-12-20T07:58:40;5.73;;;0.50;;
8500;SDS011;4288;48.484;10.024;2023-12-20T08:01:08;0.40;;;0.40;;
8500;SDS011;4288;48.484;10.024;2023-12-20T08:03:35;1.60;;;0.40;;
8500;SDS011;4288;48.484;10.024;2023-12-20T08:06:03;0.40;;;0.40;;
8500;SDS011;4288;48.484;10.024;2023-12-20T08:08:32;0.40;;;0.40;;
8500;SDS011;4288;48.484;10.024;2023-12-20T08:10:59;0.40;;;0.40;;
8500;SDS011;4288;48.484;10.024;2023-12-20T08:13:27;0.40;;;0.40;;
8500;SDS011;4288;48.484;10.024;2023-12-20T08:15:54;0.37;;;0.37;;
8500;SDS011;4288;48.484;10.024;2023-12-20T08:18:22;0.40;;;0.40;;
8500;SDS011;4288;48.484;10.024;2023-12-20T08:20:49;0.70;;;0.40;;
8500;SDS011;4288;48.484;10.024;2023-12-20T08:23:19;0.50;;;0.40;;
8500;SDS011;4288;48.484;10.024;2023-12-20T08:25:46;0.40;;;0.40;;
8500;SDS011;4288;48.484;10.024;2023-12-20T08:28:14;0.40;;;0.40;;
8500;SDS011;4288;48.484;10.024;2023-12-20T08:30:41;0.77;;;0.50;;
8500;SDS011;4288;48.484;10.024;2023-12-20T08:33:09;0.40;;;0.40;;
8500;SDS011;4288;48.484;10.024;2023-12-20T08:35:38;0.77;;;0.40;;
8500;SDS011;4288;48.484;10.024;2023-12-20T08:38:05;0.50;;;0.40;;
8500;SDS011;4288;48.484;10.024;2023-12-20T08:40:34;0.50;;;0.50;;
8500;SDS011;4288;48.484;10.024;2023-12-20T08:43:01;0.63;;;0.50;;
8500;SDS011;4288;48.484;10.024;2023-12-20T08:45:29;0.40;;;0.40;;
8500;SDS011;4288;48.484;10.024;2023-12-20T08:47:56;0.40;;;0.40;;
8500;SDS011;4288;48.484;10.024;2023-12-20T08:50:25;0.50;;;0.50;;
8500;SDS011;4288;48.484;10.024;2023-12-20T08:52:52;0.40;;;0.40;;
8500;SDS011;4288;48.484;10.024;2023-12-20T08:55:19;0.40;;;0.40;;
8500;SDS011;4288;48.484;10.024;2023-12-20T08:57:48;0.80;;;0.40;;
8500;SDS011;4288;48.484;10.024;2023-12-20T09:00:16;0.37;;;0.37;;
8500;SDS011;4288;48.484;10.024;2023-12-20T09:02:45;6.03;;;0.67;;
8500;SDS011;4288;48.484;10.024;2023-12-20T09:05:13;0.50;;;0.50;;
8500;SDS011;4288;48.484;10.024;2023-12-20T09:07:40;0.50;;;0.50;;
8500;SDS011;4288;48.484;10.024;2023-12-20T09:10:08;0.40;;;0.40;;
8500;SDS011;4288;48.484;10.024;2023-12-20T09:12:35;0.53;;;0.50;;
8500;SDS011;4288;48.484;10.024;2023-12-20T09:15:06;0.50;;;0.40;;
8500;SDS011;4288;48.484;10.024;2023-12-20T09:17:34;0.67;;;0.50;;
8500;SDS011;4288;48.484;10.024;2023-12-20T09:20:01;0.80;;;0.60;;
8500;SDS011;4288;48.484;10.024;2023-12-20T09:22:31;1.67;;;0.50;;
8500;SDS011;4288;48.484;10.024;2023-12-20T09:24:59;0.40;;;0.40;;
8500;SDS011;4288;48.484;10.024;2023-12-20T09:27:27;4.53;;;1.80;;
8500;SDS011;4288;48.484;10.024;2023-12-20T09:29:54;0.40;;;0.40;;
8500;SDS011;4288;48.484;10.024;2023-12-20T09:32:23;0.40;;;0.40;;
8500;SDS011;4288;48.484;10.024;2023-12-20T09:34:50;0.40;;;0.40;;
8500;SDS011;4288;48.484;10.024;2023-12-20T09:37:17;1.60;;;0.63;;
8500;SDS011;4288;48.484;10.024;2023-12-20T09:39:45;1.13;;;0.50;;
8500;SDS011;4288;48.484;10.024;2023-12-20T09:42:12;3.37;;;1.90;;
8500;SDS011;4288;48.484;10.024;2023-12-20T09:44:47;11.13;;;5.13;;
8500;SDS011;4288;48.484;10.024;2023-12-20T09:47:15;1.67;;;1.53;;
8500;SDS011;4288;48.484;10.024;2023-12-20T09:49:47;1.17;;;0.70;;
8500;SDS011;4288;48.484;10.024;2023-12-20T09:52:15;2.10;;;1.37;;
8500;SDS011;4288;48.484;10.024;2023-12-20T09:54:44;1.13;;;1.13;;
8500;SDS011;4288;48.484;10.024;2023-12-20T09:57:15;0.80;;;0.80;;
8500;SDS011;4288;48.484;10.024;2023-12-20T09:59:43;1.23;;;0.77;;
8500;SDS011;4288;48.484;10.024;2023-12-20T10:02:11;1.27;;;1.17;;
8500;SDS011;4288;48.484;10.024;2023-12-20T10:04:40;3.47;;;1.20;;
8500;SDS011;4288;48.484;10.024;2023-12-20T10:07:13;0.60;;;0.60;;
8500;SDS011;4288;48.484;10.024;2023-12-20T10:09:41;1.40;;;1.10;;
8500;SDS011;4288;48.484;10.024;2023-12-20T10:12:10;1.90;;;1.00;;
8500;SDS011;4288;48.484;10.024;2023-12-20T10:14:38;0.80;;;0.80;;
8500;SDS011;4288;48.484;10.024;2023-12-20T10:17:06;0.90;;;0.90;;
8500;SDS011;4288;48.484;10.024;2023-12-20T10:19:33;1.77;;;1.10;;
8500;SDS011;4288;48.484;10.024;2023-12-20T10:22:03;1.40;;;1.10;;
8500;SDS011;4288;48.484;10.024;2023-12-20T10:24:32;2.97;;;0.90;;
8500;SDS011;4288;48.484;10.024;2023-12-20T10:27:02;0.80;;;0.70;;
8500;SDS011;4288;48.484;10.024;2023-12-20T10:29:31;0.50;;;0.50;;
8500;SDS011;4288;48.484;10.024;2023-12-20T10:31:59;0.83;;;0.70;;
8500;SDS011;4288;48.484;10.024;2023-12-20T10:34:47;1.03;;;0.83;;
8500;SDS011;4288;48.484;10.024;2023-12-20T10:37:14;1.83;;;0.80;;
8500;SDS011;4288;48.484;10.024;2023-12-20T10:39:43;0.60;;;0.60;;
8500;SDS011;4288;48.484;10.024;2023-12-20T10:42:15;1.43;;;0.60;;
8500;SDS011;4288;48.484;10.024;2023-12-20T10:44:43;0.60;;;0.60;;
8500;SDS011;4288;48.484;10.024;2023-12-20T10:47:10;1.10;;;0.70;;
8500;SDS011;4288;48.484;10.024;2023-12-20T10:49:39;1.60;;;1.50;;
8500;SDS011;4288;48.484;10.024;2023-12-20T10:52:07;1.17;;;0.90;;
8500;SDS011;4288;48.484;10.024;2023-12-20T10:54:37;2.63;;;0.57;;
8500;SDS011;4288;48.484;10.024;2023-12-20T10:57:06;3.37;;;0.80;;
8500;SDS011;4288;48.484;10.024;2023-12-20T10:59:36;1.37;;;0.90;;
8500;SDS011;4288;48.484;10.024;2023-12-20T11:02:04;7.40;;;1.40;;
8500;SDS011;4288;48.484;10.024;2023-12-20T11:04:35;0.63;;;0.63;;
8500;SDS011;4288;48.484;10.024;2023-12-20T11:07:12;3.90;;;0.77;;
8500;SDS011;4288;48.484;10.024;2023-12-20T11:09:47;12.10;;;0.80;;
8500;SDS011;4288;48.484;10.024;2023-12-20T11:12:28;1.90;;;0.60;;
8500;SDS011;4288;48.484;10.024;2023-12-20T11:15:04;4.00;;;0.80;;
8500;SDS011;4288;48.484;10.024;2023-12-20T11:17:32;5.70;;;0.97;;
8500;SDS011;4288;48.484;10.024;2023-12-20T11:20:03;4.50;;;1.00;;
8500;SDS011;4288;48.484;10.024;2023-12-20T11:22:38;2.63;;;0.90;;
8500;SDS011;4288;48.484;10.024;2023-12-20T11:25:18;9.53;;;3.10;;
8500;SDS011;4288;48.484;10.024;2023-12-20T11:28:06;36.53;;;8.00;;
8500;SDS011;4288;48.484;10.024;2023-12-20T11:33:20;69.47;;;13.50;;
8500;SDS011;4288;48.484;10.024;2023-12-20T11:35:48;93.87;;;15.83;;
8500;SDS011;4288;48.484;10.024;2023-12-20T11:38:16;14.20;;;3.90;;
8500;SDS011;4288;48.484;10.024;2023-12-20T11:40:47;36.03;;;11.87;;
8500;SDS011;4288;48.484;10.024;2023-12-20T11:43:30;11.30;;;3.60;;
8500;SDS011;4288;48.484;10.024;2023-12-20T11:46:02;4.23;;;3.07;;
8500;SDS011;4288;48.484;10.024;2023-12-20T11:48:31;1.80;;;1.30;;
8500;SDS011;4288;48.484;10.024;2023-12-20T11:50:58;1.33;;;1.17;;
8500;SDS011;4288;48.484;10.024;2023-12-20T11:53:26;1.83;;;0.80;;
8500;SDS011;4288;48.484;10.024;2023-12-20T11:55:54;3.43;;;0.90;;
8500;SDS011;4288;48.484;10.024;2023-12-20T11:58:21;4.87;;;1.53;;
8500;SDS011;4288;48.484;10.024;2023-12-20T12:00:50;1.17;;;0.60;;
8500;SDS011;4288;48.484;10.024;2023-12-20T12:03:18;0.70;;;0.53;;
8500;SDS011;4288;48.484;10.024;2023-12-20T12:05:46;8.90;;;3.30;;
8500;SDS011;4288;48.484;10.024;2023-12-20T12:08:14;30.60;;;12.73;;
8500;SDS011;4288;48.484;10.024;2023-12-20T12:10:42;20.57;;;8.50;;
8500;SDS011;4288;48.484;10.024;2023-12-20T12:13:10;6.70;;;1.30;;
8500;SDS011;4288;48.484;10.024;2023-12-20T12:15:39;2.37;;;1.27;;
8500;SDS011;4288;48.484;10.024;2023-12-20T12:18:09;2.20;;;0.80;;
8500;SDS011;4288;48.484;10.024;2023-12-20T12:20:36;2.20;;;0.70;;
8500;SDS011;4288;48.484;10.024;2023-12-20T12:23:04;1.30;;;0.87;;
8500;SDS011;4288;48.484;10.024;2023-12-20T12:25:32;4.40;;;0.93;;
8500;SDS011;4288;48.484;10.024;2023-12-20T12:28:02;1.57;;;0.60;;
8500;SDS011;4288;48.484;10.024;2023-12-20T12:30:29;5.60;;;1.10;;
8500;SDS011;4288;48.484;10.024;2023-12-20T12:32:57;2.83;;;0.90;;
8500;SDS011;4288;48.484;10.024;2023-12-20T12:35:26;1.50;;;1.10;;
8500;SDS011;4288;48.484;10.024;2023-12-20T12:37:53;3.47;;;1.03;;
8500;SDS011;4288;48.484;10.024;2023-12-20T12:40:20;3.47;;;0.80;;
8500;SDS011;4288;48.484;10.024;2023-12-20T12:42:48;1.43;;;0.70;;
8500;SDS011;4288;48.484;10.024;2023-12-20T12:45:15;2.33;;;1.00;;
8500;SDS011;4288;48.484;10.024;2023-12-20T12:47:42;6.10;;;1.20;;
8500;SDS011;4288;48.484;10.024;2023-12-20T12:50:11;2.60;;;0.90;;
8500;SDS011;4288;48.484;10.024;2023-12-20T12:52:40;2.23;;;1.03;;
8500;SDS011;4288;48.484;10.024;2023-12-20T12:55:07;2.70;;;1.00;;
8500;SDS011;4288;48.484;10.024;2023-12-20T12:57:34;3.27;;;1.13;;
8500;SDS011;4288;48.484;10.024;2023-12-20T13:00:02;3.23;;;1.80;;
8500;SDS011;4288;48.484;10.024;2023-12-20T13:02:33;4.13;;;1.53;;
8500;SDS011;4288;48.484;10.024;2023-12-20T13:05:02;2.00;;;1.40;;
8500;SDS011;4288;48.484;10.024;2023-12-20T13:07:30;2.50;;;1.30;;
8500;SDS011;4288;48.484;10.024;2023-12-20T13:09:59;15.10;;;3.10;;
8500;SDS011;4288;48.484;10.024;2023-12-20T13:12:26;30.47;;;7.73;;
8500;SDS011;4288;48.484;10.024;2023-12-20T13:14:54;28.70;;;7.50;;
8500;SDS011;4288;48.484;10.024;2023-12-20T13:17:22;6.33;;;2.30;;
8500;SDS011;4288;48.484;10.024;2023-12-20T13:19:49;21.47;;;4.80;;
8500;SDS011;4288;48.484;10.024;2023-12-20T13:22:17;15.23;;;3.70;;
8500;SDS011;4288;48.484;10.024;2023-12-20T13:24:44;16.37;;;4.87;;
8500;SDS011;4288;48.484;10.024;2023-12-20T13:27:13;21.03;;;4.73;;
8500;SDS011;4288;48.484;10.024;2023-12-20T13:29:40;13.23;;;2.40;;
8500;SDS011;4288;48.484;10.024;2023-12-20T13:32:08;5.30;;;1.07;;
8500;SDS011;4288;48.484;10.024;2023-12-20T13:34:35;33.03;;;6.63;;
8500;SDS011;4288;48.484;10.024;2023-12-20T13:37:03;12.77;;;3.37;;
8500;SDS011;4288;48.484;10.024;2023-12-20T13:39:30;8.83;;;2.47;;
8500;SDS011;4288;48.484;10.024;2023-12-20T13:41:58;30.10;;;5.30;;
8500;SDS011;4288;48.484;10.024;2023-12-20T13:44:27;21.93;;;6.50;;
8500;SDS011;4288;48.484;10.024;2023-12-20T13:46:54;15.33;;;2.80;;
8500;SDS011;4288;48.484;10.024;2023-12-20T13:49:21;29.60;;;6.13;;
8500;SDS011;4288;48.484;10.024;2023-12-20T13:51:50;18.53;;;3.50;;
8500;SDS011;4288;48.484;10.024;2023-12-20T13:54:19;37.10;;;7.70;;
8500;SDS011;4288;48.484;10.024;2023-12-20T13:56:47;22.00;;;3.90;;
8500;SDS011;4288;48.484;10.024;2023-12-20T13:59:14;31.17;;;4.67;;
8500;SDS011;4288;48.484;10.024;2023-12-20T14:01:43;14.90;;;2.97;;
8500;SDS011;4288;48.484;10.024;2023-12-20T14:04:10;3.47;;;1.43;;
8500;SDS011;4288;48.484;10.024;2023-12-20T14:06:38;4.83;;;1.07;;
8500;SDS011;4288;48.484;10.024;2023-12-20T14:09:06;2.20;;;0.90;;
8500;SDS011;4288;48.484;10.024;2023-12-20T14:11:34;3.50;;;1.07;;
8500;SDS011;4288;48.484;10.024;2023-12-20T14:14:06;5.30;;;1.00;;
8500;SDS011;4288;48.484;10.024;2023-12-20T14:16:33;3.83;;;1.60;;
8500;SDS011;4288;48.484;10.024;2023-12-20T14:19:02;7.10;;;1.00;;
8500;SDS011;4288;48.484;10.024;2023-12-20T14:21:32;2.90;;;1.20;;
8500;SDS011;4288;48.484;10.024;2023-12-20T14:23:59;2.20;;;0.73;;
8500;SDS011;4288;48.484;10.024;2023-12-20T14:26:27;1.87;;;0.90;;
8500;SDS011;4288;48.484;10.024;2023-12-20T14:28:54;3.07;;;0.50;;
8500;SDS011;4288;48.484;10.024;2023-12-20T14:31:21;5.30;;;1.23;;
8500;SDS011;4288;48.484;10.024;2023-12-20T14:33:50;7.33;;;0.70;;
8500;SDS011;4288;48.484;10.024;2023-12-20T14:36:19;1.37;;;0.60;;
8500;SDS011;4288;48.484;10.024;2023-12-20T14:38:47;4.23;;;0.70;;
8500;SDS011;4288;48.484;10.024;2023-12-20T14:41:15;1.80;;;0.83;;
8500;SDS011;4288;48.484;10.024;2023-12-20T14:43:44;6.27;;;1.00;;
8500;SDS011;4288;48.484;10.024;2023-12-20T14:46:11;3.03;;;0.60;;
8500;SDS011;4288;48.484;10.024;2023-12-20T14:48:40;6.57;;;0.70;;
8500;SDS011;4288;48.484;10.024;2023-12-20T14:51:07;6.80;;;0.70;;
8500;SDS011;4288;48.484;10.024;2023-12-20T14:53:37;3.00;;;0.97;;
8500;SDS011;4288;48.484;10.024;2023-12-20T14:56:04;4.80;;;0.70;;
8500;SDS011;4288;48.484;10.024;2023-12-20T14:58:32;2.53;;;1.17;;
8500;SDS011;4288;48.484;10.024;2023-12-20T15:01:02;1.50;;;1.30;;
8500;SDS011;4288;48.484;10.024;2023-12-20T15:03:32;4.40;;;0.90;;
8500;SDS011;4288;48.484;10.024;2023-12-20T15:05:59;3.23;;;0.83;;
8500;SDS011;4288;48.484;10.024;2023-12-20T15:08:27;3.10;;;0.90;;